Time;durP1;ratioP1;P1;durP2;ratioP2;P2;SDS_P1;SDS_P2;PMS_P1;PMS_P2;Temp;Humidity;BMP_temperature;BMP_pressure;BME280_temperature;BME280_humidity;BME280_pressure;Samples;Min_cycle;Max_cycle;Signal;HPM_P1;HPM_P2
2022/04/24 00:00:10;;;;;;;0.30;0.30;;;13.00;99.90;;;;;;4974584;28;20058;-75
2022/04/24 00:02:36;;;;;;;0.52;0.40;;;13.10;99.90;;;;;;4981509;28;20021;-75
2022/04/24 00:05:03;;;;;;;0.88;0.88;;;13.00;99.90;;;;;;5002817;28;20046;-73
2022/04/24 00:07:29;;;;;;;0.30;0.30;;;13.00;99.90;;;;;;5009972;28;20037;-74
2022/04/24 00:09:55;;;;;;;0.10;0.10;;;13.00;99.90;;;;;;5010210;28;20145;-75
2022/04/24 00:12:21;;;;;;;0.77;0.65;;;13.00;99.90;;;;;;5010278;28;20088;-75
2022/04/24 00:14:48;;;;;;;0.35;0.35;;;13.00;99.90;;;;;;5010994;28;20037;-74
2022/04/24 00:17:16;;;;;;;0.20;0.20;;;12.90;99.90;;;;;;5011161;28;20168;-74
2022/04/24 00:19:43;;;;;;;0.40;0.40;;;12.90;99.90;;;;;;5011266;28;20108;-74
2022/04/24 00:22:09;;;;;;;0.08;0.08;;;12.80;99.90;;;;;;5011360;28;20040;-75
2022/04/24 00:24:35;;;;;;;0.13;0.13;;;12.70;99.90;;;;;;5009740;28;20033;-74
2022/04/24 00:27:02;;;;;;;0.35;0.35;;;12.60;99.90;;;;;;5010941;28;20045;-74
2022/04/24 00:29:27;;;;;;;1.35;0.98;;;12.50;99.90;;;;;;5010899;28;20034;-74
2022/04/24 00:31:53;;;;;;;0.43;0.43;;;12.50;99.90;;;;;;4993476;28;20036;-74
2022/04/24 00:34:19;;;;;;;0.10;0.10;;;12.50;99.90;;;;;;5009413;28;20022;-75
2022/04/24 00:36:45;;;;;;;0.50;0.50;;;12.50;99.90;;;;;;5011021;28;20061;-73
2022/04/24 00:39:14;;;;;;;1.65;1.00;;;12.30;99.90;;;;;;5010871;28;20065;-73
2022/04/24 00:41:50;;;;;;;0.20;0.20;;;12.20;99.90;;;;;;5009620;28;20076;-74
2022/04/24 00:44:18;;;;;;;0.10;0.10;;;12.10;99.90;;;;;;5009555;28;20059;-74
2022/04/24 00:47:13;;;;;;;0.77;0.77;;;12.20;99.90;;;;;;5010029;28;20041;-75
2022/04/24 00:49:40;;;;;;;2.38;1.13;;;12.20;99.90;;;;;;5009829;28;20070;-75
2022/04/24 00:52:06;;;;;;;0.00;0.00;;;12.20;99.90;;;;;;5010676;28;20696;-74
2022/04/24 00:54:32;;;;;;;0.65;0.57;;;12.20;99.90;;;;;;5008854;28;20678;-75
2022/04/24 00:56:58;;;;;;;0.00;0.00;;;12.20;99.90;;;;;;5009768;28;20026;-74
2022/04/24 00:59:24;;;;;;;0.32;0.32;;;12.10;99.90;;;;;;5009564;28;20481;-74
2022/04/24 01:01:49;;;;;;;0.10;0.10;;;12.00;99.90;;;;;;5010565;28;20040;-75
2022/04/24 01:04:18;;;;;;;0.20;0.20;;;11.90;99.90;;;;;;5006204;28;20042;-74
2022/04/24 01:06:47;;;;;;;0.15;0.15;;;11.70;99.90;;;;;;4975363;28;20030;-74
2022/04/24 01:09:16;;;;;;;1.50;1.02;;;11.60;99.90;;;;;;4998370;28;20031;-74
2022/04/24 01:11:43;;;;;;;0.40;0.40;;;11.50;99.90;;;;;;5000844;28;20029;-75
2022/04/24 01:14:19;;;;;;;1.00;0.88;;;11.60;99.90;;;;;;5010185;28;20387;-75
2022/04/24 01:16:47;;;;;;;1.27;1.02;;;11.60;99.90;;;;;;4991769;28;20033;-74
2022/04/24 01:19:13;;;;;;;0.38;0.38;;;11.60;99.90;;;;;;4989578;28;20422;-74
2022/04/24 01:21:42;;;;;;;0.20;0.20;;;11.60;99.90;;;;;;4991073;28;20069;-74
2022/04/24 01:24:08;;;;;;;0.10;0.10;;;11.60;99.90;;;;;;4998620;28;20022;-75
2022/04/24 01:26:35;;;;;;;0.15;0.13;;;11.60;99.90;;;;;;5009549;28;20061;-75
2022/04/24 01:29:04;;;;;;;0.68;0.52;;;11.60;99.90;;;;;;5011925;28;20065;-74
2022/04/24 01:31:33;;;;;;;0.20;0.20;;;11.60;99.90;;;;;;5013172;28;20029;-74
2022/04/24 01:34:00;;;;;;;1.10;0.75;;;11.60;99.90;;;;;;5013770;28;20385;-74
2022/04/24 01:36:27;;;;;;;0.40;0.40;;;11.60;99.90;;;;;;5013002;28;20029;-74
2022/04/24 01:38:52;;;;;;;0.60;0.60;;;11.60;99.90;;;;;;5012594;28;20041;-75
2022/04/24 01:41:18;;;;;;;0.55;0.55;;;11.60;99.90;;;;;;5005046;28;20045;-74
2022/04/24 01:43:44;;;;;;;1.45;1.17;;;11.70;99.90;;;;;;4976554;28;20096;-74
2022/04/24 01:46:11;;;;;;;1.67;0.63;;;11.70;99.90;;;;;;4976888;28;20040;-74
2022/04/24 01:48:37;;;;;;;0.25;0.25;;;11.70;99.90;;;;;;4992832;28;20305;-74
2022/04/24 01:51:05;;;;;;;0.40;0.40;;;11.60;99.90;;;;;;4976890;28;20517;-73
2022/04/24 01:53:32;;;;;;;0.22;0.22;;;11.60;99.90;;;;;;4992892;28;20439;-74
2022/04/24 01:56:04;;;;;;;0.55;0.45;;;11.60;99.90;;;;;;4994119;28;20029;-74
2022/04/24 01:58:30;;;;;;;0.40;0.40;;;11.70;99.90;;;;;;4992810;28;20030;-74
2022/04/24 02:00:56;;;;;;;0.28;0.28;;;11.60;99.90;;;;;;4994016;28;20041;-73
2022/04/24 02:03:24;;;;;;;0.10;0.10;;;11.60;99.90;;;;;;4976175;28;20052;-73
2022/04/24 02:05:50;;;;;;;0.88;0.52;;;11.60;99.90;;;;;;4993916;28;20121;-74
2022/04/24 02:08:16;;;;;;;0.40;0.40;;;11.60;99.90;;;;;;4993683;28;20125;-74
2022/04/24 02:10:41;;;;;;;0.65;0.20;;;11.50;99.90;;;;;;4992772;28;20030;-73
2022/04/24 02:13:08;;;;;;;0.52;0.52;;;11.50;99.90;;;;;;4992300;28;20465;-74
2022/04/24 02:15:34;;;;;;;0.20;0.20;;;11.40;99.90;;;;;;4995903;28;20095;-73
2022/04/24 02:18:00;;;;;;;0.10;0.10;;;11.40;99.90;;;;;;5013298;28;20137;-74
2022/04/24 02:20:28;;;;;;;0.35;0.35;;;11.40;99.90;;;;;;5012190;28;20029;-75
2022/04/24 02:22:57;;;;;;;0.38;0.38;;;11.30;99.90;;;;;;4995286;28;20103;-74
2022/04/24 02:25:24;;;;;;;2.55;1.75;;;11.40;99.90;;;;;;4995296;28;20172;-74
2022/04/24 02:27:53;;;;;;;0.20;0.20;;;11.40;99.90;;;;;;5012870;28;20026;-74
2022/04/24 02:30:23;;;;;;;0.30;0.30;;;11.40;99.90;;;;;;5011888;28;20109;-75
2022/04/24 02:32:49;;;;;;;0.20;0.20;;;11.30;99.90;;;;;;5011834;28;20026;-74
2022/04/24 02:35:15;;;;;;;0.10;0.10;;;11.40;99.90;;;;;;5012895;28;20378;-74
2022/04/24 02:37:42;;;;;;;0.20;0.20;;;11.30;99.90;;;;;;5011911;28;20033;-74
2022/04/24 02:40:09;;;;;;;0.30;0.30;;;11.40;99.90;;;;;;5012753;28;20033;-74
2022/04/24 02:42:39;;;;;;;1.10;1.08;;;11.40;99.90;;;;;;5013142;28;20022;-75
2022/04/24 02:45:07;;;;;;;0.10;0.10;;;11.40;99.90;;;;;;5012461;28;20398;-74
2022/04/24 02:47:34;;;;;;;0.65;0.65;;;11.40;99.90;;;;;;5011554;28;20516;-74
2022/04/24 02:50:00;;;;;;;0.52;0.52;;;11.40;99.90;;;;;;5012476;28;20117;-74
2022/04/24 02:52:26;;;;;;;1.85;0.65;;;11.40;99.90;;;;;;5012844;28;20103;-75
2022/04/24 02:54:52;;;;;;;0.50;0.50;;;11.30;99.90;;;;;;5012146;28;20477;-75
2022/04/24 02:57:18;;;;;;;0.13;0.13;;;11.40;99.90;;;;;;5011250;28;20026;-74
2022/04/24 02:59:49;;;;;;;2.60;1.27;;;11.40;99.90;;;;;;5011586;28;20492;-74
2022/04/24 03:02:17;;;;;;;1.55;1.45;;;11.30;99.90;;;;;;5011409;28;20124;-74
2022/04/24 03:04:45;;;;;;;0.10;0.10;;;11.30;99.90;;;;;;5010820;28;20133;-73
2022/04/24 03:07:11;;;;;;;1.90;1.13;;;11.40;99.90;;;;;;5012336;28;20084;-74
2022/04/24 03:09:37;;;;;;;7.18;1.55;;;11.40;99.90;;;;;;5012129;28;20038;-73
2022/04/24 03:12:03;;;;;;;3.83;0.73;;;11.40;99.90;;;;;;5010873;28;20390;-74
2022/04/24 03:14:29;;;;;;;0.13;0.13;;;11.50;99.90;;;;;;5010794;28;20117;-73
2022/04/24 03:16:54;;;;;;;2.72;1.50;;;11.40;99.90;;;;;;4991413;28;20101;-73
2022/04/24 03:19:20;;;;;;;0.03;0.03;;;11.40;99.90;;;;;;4992296;28;20034;-74
2022/04/24 03:21:46;;;;;;;0.28;0.28;;;11.40;99.90;;;;;;4992748;28;20030;-74
2022/04/24 03:24:12;;;;;;;0.20;0.20;;;11.40;99.90;;;;;;4974968;28;20065;-74
2022/04/24 03:26:38;;;;;;;0.43;0.43;;;11.40;99.90;;;;;;4992561;28;20065;-74
2022/04/24 03:29:04;;;;;;;0.90;0.25;;;11.40;99.90;;;;;;4992438;28;20077;-74
2022/04/24 03:31:29;;;;;;;0.00;0.00;;;11.40;99.90;;;;;;4991186;28;20030;-74
2022/04/24 03:33:55;;;;;;;0.32;0.32;;;11.40;99.90;;;;;;4991773;28;20038;-74
2022/04/24 03:36:21;;;;;;;1.05;0.70;;;11.40;99.90;;;;;;4992231;28;20144;-73
2022/04/24 03:38:47;;;;;;;2.55;1.13;;;11.40;99.90;;;;;;4974650;28;20042;-74
2022/04/24 03:41:13;;;;;;;0.28;0.28;;;11.30;99.90;;;;;;4991070;28;20030;-74
2022/04/24 03:43:39;;;;;;;0.98;0.63;;;11.30;99.90;;;;;;4991975;28;20045;-73
2022/04/24 03:46:05;;;;;;;0.10;0.10;;;11.20;99.90;;;;;;4992170;28;20066;-75
2022/04/24 03:48:32;;;;;;;1.00;0.63;;;11.20;99.90;;;;;;4992162;28;20034;-75
2022/04/24 03:50:58;;;;;;;3.72;1.90;;;11.10;99.90;;;;;;4973984;28;20090;-74
2022/04/24 03:53:24;;;;;;;0.13;0.13;;;11.00;99.90;;;;;;4990380;28;20522;-75
2022/04/24 03:55:49;;;;;;;0.03;0.03;;;10.90;99.90;;;;;;4990506;28;20112;-75
2022/04/24 03:58:15;;;;;;;0.80;0.80;;;10.80;99.90;;;;;;4990733;28;20027;-73
2022/04/24 04:00:41;;;;;;;0.13;0.13;;;10.80;99.90;;;;;;4991984;28;20026;-73
2022/04/24 04:03:06;;;;;;;0.52;0.52;;;10.60;99.90;;;;;;4991542;28;20026;-73
2022/04/24 04:05:37;;;;;;;0.30;0.30;;;10.50;99.90;;;;;;4990057;28;20038;-74
2022/04/24 04:08:03;;;;;;;0.20;0.20;;;10.40;99.90;;;;;;4991845;28;20363;-74
2022/04/24 04:10:29;;;;;;;3.80;1.77;;;10.40;99.90;;;;;;4991828;28;20474;-74
2022/04/24 04:12:55;;;;;;;0.70;0.70;;;10.30;99.90;;;;;;4990900;28;20030;-74
2022/04/24 04:15:21;;;;;;;0.73;0.73;;;10.30;99.90;;;;;;4999209;28;20022;-74
2022/04/24 04:17:48;;;;;;;0.25;0.25;;;10.30;99.90;;;;;;5010157;28;20032;-74
2022/04/24 04:20:14;;;;;;;1.40;1.30;;;10.20;99.90;;;;;;4993213;28;20022;-74
2022/04/24 04:22:51;;;;;;;0.40;0.40;;;10.20;99.90;;;;;;5010891;28;20040;-74
2022/04/24 04:25:23;;;;;;;0.25;0.25;;;10.10;99.90;;;;;;5009454;28;20655;-74
2022/04/24 04:27:50;;;;;;;46.17;2.10;;;10.10;99.90;;;;;;5011193;28;20034;-74
2022/04/24 04:30:16;;;;;;;0.13;0.13;;;10.10;99.90;;;;;;5009678;28;20623;-74
2022/04/24 04:32:42;;;;;;;0.00;0.00;;;10.10;99.90;;;;;;4993574;28;20080;-74
2022/04/24 04:35:09;;;;;;;0.10;0.10;;;10.10;99.90;;;;;;5011035;28;20117;-75
2022/04/24 04:37:36;;;;;;;0.00;0.00;;;10.00;99.90;;;;;;5011219;28;20088;-74
2022/04/24 04:40:04;;;;;;;0.75;0.75;;;10.00;99.90;;;;;;4993446;28;20029;-73
2022/04/24 04:42:30;;;;;;;0.00;0.00;;;10.00;99.90;;;;;;4993243;28;20062;-73
2022/04/24 04:44:58;;;;;;;0.60;0.60;;;10.00;99.90;;;;;;5010606;28;20064;-74
2022/04/24 04:47:24;;;;;;;0.47;0.40;;;9.90;99.90;;;;;;5009568;28;20026;-74
2022/04/24 04:49:50;;;;;;;0.28;0.28;;;9.90;99.90;;;;;;5010875;28;20026;-74
2022/04/24 04:52:16;;;;;;;0.25;0.25;;;9.90;99.90;;;;;;5009108;28;20432;-74
2022/04/24 04:54:42;;;;;;;0.00;0.00;;;9.90;99.90;;;;;;5010384;28;20032;-73
2022/04/24 04:57:08;;;;;;;0.25;0.25;;;9.90;99.90;;;;;;5010908;28;20030;-73
2022/04/24 04:59:33;;;;;;;0.10;0.10;;;9.90;99.90;;;;;;5011075;28;20033;-73
2022/04/24 05:01:59;;;;;;;1.30;0.55;;;9.90;99.90;;;;;;5010792;28;20605;-73
2022/04/24 05:04:25;;;;;;;0.95;0.40;;;9.90;99.90;;;;;;5014243;28;20119;-74
2022/04/24 05:06:51;;;;;;;0.20;0.20;;;9.80;99.90;;;;;;5014721;28;20091;-74
2022/04/24 05:09:17;;;;;;;2.72;0.85;;;9.80;99.90;;;;;;5013286;28;20034;-74
2022/04/24 05:11:42;;;;;;;0.10;0.10;;;9.80;99.90;;;;;;5014901;28;20034;-74
2022/04/24 05:14:08;;;;;;;0.30;0.30;;;9.80;99.90;;;;;;5014028;28;20022;-75
2022/04/24 05:16:34;;;;;;;0.10;0.10;;;9.80;99.90;;;;;;4996102;28;20209;-74
2022/04/24 05:19:00;;;;;;;0.20;0.20;;;9.70;99.90;;;;;;4994980;28;20586;-74
2022/04/24 05:21:26;;;;;;;0.10;0.10;;;9.70;99.90;;;;;;4977443;28;20121;-74
2022/04/24 05:23:52;;;;;;;0.10;0.10;;;9.80;99.90;;;;;;4994513;28;20478;-74
2022/04/24 05:26:18;;;;;;;0.00;0.00;;;9.90;99.90;;;;;;4994732;28;20067;-74
2022/04/24 05:28:45;;;;;;;1.90;0.40;;;9.90;99.90;;;;;;4993702;28;20042;-74
2022/04/24 05:31:11;;;;;;;0.10;0.10;;;9.80;99.90;;;;;;4977207;28;20386;-74
2022/04/24 05:33:37;;;;;;;0.55;0.55;;;9.80;99.90;;;;;;4993974;28;20397;-74
2022/04/24 05:36:07;;;;;;;0.90;0.82;;;9.80;99.90;;;;;;4994338;28;20029;-74
2022/04/24 05:38:34;;;;;;;1.10;1.05;;;9.80;99.90;;;;;;4992965;28;20475;-74
2022/04/24 05:40:59;;;;;;;0.65;0.57;;;9.90;99.90;;;;;;4993309;28;20047;-75
2022/04/24 05:43:25;;;;;;;0.10;0.10;;;10.00;99.90;;;;;;4994208;28;20030;-74
2022/04/24 05:45:51;;;;;;;0.00;0.00;;;10.00;99.90;;;;;;4994401;28;20482;-74
2022/04/24 05:48:18;;;;;;;0.55;0.43;;;10.10;99.90;;;;;;4994244;28;20057;-74
2022/04/24 05:50:45;;;;;;;0.00;0.00;;;10.10;99.90;;;;;;4977050;28;20026;-74
2022/04/24 05:53:11;;;;;;;0.10;0.10;;;10.20;99.90;;;;;;4992374;28;20476;-74
2022/04/24 05:55:37;;;;;;;0.25;0.25;;;10.10;99.90;;;;;;4994242;28;20122;-74
2022/04/24 05:58:03;;;;;;;2.05;1.88;;;10.10;99.90;;;;;;4990289;28;20109;-74
2022/04/24 06:00:29;;;;;;;0.00;0.00;;;10.10;99.90;;;;;;5001900;28;20680;-74
2022/04/24 06:02:55;;;;;;;0.00;0.00;;;10.10;99.90;;;;;;4976769;28;20054;-72
2022/04/24 06:05:22;;;;;;;0.73;0.73;;;10.20;99.90;;;;;;4973123;28;20449;-71
2022/04/24 06:07:48;;;;;;;0.00;0.00;;;10.30;99.90;;;;;;4984407;28;20410;-72
2022/04/24 06:10:14;;;;;;;0.00;0.00;;;10.30;99.90;;;;;;4992145;28;20077;-72
2022/04/24 06:12:55;;;;;;;0.73;0.73;;;10.30;99.90;;;;;;4975430;28;20033;-72
2022/04/24 06:15:24;;;;;;;0.27;0.27;;;10.30;99.90;;;;;;4972438;28;20066;-72
2022/04/24 06:17:53;;;;;;;0.10;0.10;;;10.30;99.90;;;;;;4972852;28;20030;-72
2022/04/24 06:20:21;;;;;;;0.30;0.28;;;10.30;99.90;;;;;;4956920;28;20023;-72
2022/04/24 06:22:50;;;;;;;0.20;0.20;;;10.10;99.90;;;;;;4956867;28;20490;-69
2022/04/24 06:25:21;;;;;;;1.33;0.30;;;10.00;99.90;;;;;;4956521;28;20449;-71
2022/04/24 06:27:48;;;;;;;0.10;0.10;;;10.20;99.90;;;;;;4973976;28;20118;-74
2022/04/24 06:30:16;;;;;;;0.32;0.32;;;10.20;99.90;;;;;;4956861;28;20031;-71
2022/04/24 06:32:43;;;;;;;0.00;0.00;;;10.30;99.90;;;;;;4956910;28;20114;-71
2022/04/24 06:35:14;;;;;;;0.10;0.10;;;10.10;99.90;;;;;;4973349;28;20034;-70
2022/04/24 06:37:42;;;;;;;0.10;0.10;;;10.10;99.90;;;;;;4991922;28;20034;-72
2022/04/24 06:40:11;;;;;;;0.32;0.32;;;10.20;99.90;;;;;;4992094;28;20041;-72
2022/04/24 06:42:49;;;;;;;0.10;0.10;;;10.30;99.90;;;;;;4991865;28;20038;-72
2022/04/24 06:45:16;;;;;;;0.10;0.10;;;10.20;99.90;;;;;;4992698;28;20040;-71
2022/04/24 06:47:43;;;;;;;0.10;0.10;;;10.20;99.90;;;;;;4993057;28;20074;-71
2022/04/24 06:50:09;;;;;;;0.13;0.13;;;10.20;99.90;;;;;;4991733;28;20044;-71
2022/04/24 06:52:35;;;;;;;0.08;0.08;;;10.30;99.90;;;;;;4993083;28;20069;-70
2022/04/24 06:55:00;;;;;;;0.00;0.00;;;10.30;99.90;;;;;;4992373;28;20061;-69
2022/04/24 06:57:27;;;;;;;0.20;0.20;;;10.30;99.90;;;;;;4993011;28;20108;-71
2022/04/24 06:59:52;;;;;;;0.45;0.45;;;10.20;99.90;;;;;;4992579;28;20653;-70
2022/04/24 07:02:18;;;;;;;0.10;0.10;;;10.20;99.90;;;;;;4991900;28;20113;-71
2022/04/24 07:04:44;;;;;;;0.08;0.08;;;10.20;99.90;;;;;;4992071;28;20113;-70
2022/04/24 07:07:10;;;;;;;1.45;1.00;;;10.20;99.90;;;;;;4992487;28;20037;-73
2022/04/24 07:09:35;;;;;;;3.72;2.45;;;10.20;99.90;;;;;;4990921;28;20035;-67
2022/04/24 07:12:01;;;;;;;0.00;0.00;;;10.20;99.90;;;;;;4992329;28;20157;-69
2022/04/24 07:14:27;;;;;;;0.52;0.52;;;10.10;99.90;;;;;;4992305;28;20038;-70
2022/04/24 07:16:52;;;;;;;0.00;0.00;;;10.10;99.90;;;;;;4999587;23;20038;-71
2022/04/24 07:19:18;;;;;;;1.25;0.45;;;10.10;99.90;;;;;;4976683;28;20031;-73
2022/04/24 07:21:44;;;;;;;0.95;0.80;;;10.10;99.90;;;;;;4973191;28;20114;-74
2022/04/24 07:24:09;;;;;;;0.32;0.32;;;10.10;99.90;;;;;;4973205;28;20446;-74
2022/04/24 07:26:35;;;;;;;0.73;0.73;;;10.00;99.90;;;;;;4972652;28;20026;-72
2022/04/24 07:29:01;;;;;;;0.10;0.10;;;10.10;99.90;;;;;;4955612;28;20089;-72
2022/04/24 07:31:26;;;;;;;0.20;0.20;;;10.10;99.90;;;;;;4971628;28;20075;-74
2022/04/24 07:33:55;;;;;;;0.52;0.52;;;10.00;99.90;;;;;;4972339;28;20066;-73
2022/04/24 07:36:21;;;;;;;0.47;0.47;;;10.10;99.90;;;;;;4972550;28;20026;-73
2022/04/24 07:38:46;;;;;;;0.30;0.30;;;10.20;99.90;;;;;;4972621;28;20054;-73
2022/04/24 07:41:12;;;;;;;0.00;0.00;;;10.10;99.90;;;;;;4972855;28;20035;-73
2022/04/24 07:43:38;;;;;;;0.15;0.15;;;10.20;99.90;;;;;;4972373;28;20494;-72
2022/04/24 07:46:04;;;;;;;5.18;0.80;;;10.20;99.90;;;;;;4972598;28;20033;-71
2022/04/24 07:48:29;;;;;;;1.08;1.00;;;10.20;99.90;;;;;;4971063;28;20037;-72
2022/04/24 07:50:55;;;;;;;0.98;0.80;;;10.30;99.90;;;;;;4972370;28;20117;-71
2022/04/24 07:53:21;;;;;;;0.50;0.50;;;10.10;99.90;;;;;;4971777;28;20030;-71
2022/04/24 07:55:49;;;;;;;2.92;1.27;;;10.20;99.90;;;;;;4972232;28;20027;-71
2022/04/24 07:58:16;;;;;;;0.00;0.00;;;10.20;99.90;;;;;;4954968;28;20038;-72
2022/04/24 08:00:44;;;;;;;0.00;0.00;;;10.30;99.90;;;;;;4939054;28;20030;-72
2022/04/24 08:03:13;;;;;;;1.15;0.55;;;10.20;99.90;;;;;;4954525;28;20031;-72
2022/04/24 08:05:46;;;;;;;0.82;0.82;;;10.20;99.90;;;;;;4971929;28;20399;-72
2022/04/24 08:08:23;;;;;;;0.10;0.10;;;10.30;99.90;;;;;;4972042;28;20406;-71
2022/04/24 08:10:55;;;;;;;0.55;0.55;;;10.40;99.90;;;;;;4972554;28;20105;-71
2022/04/24 08:13:23;;;;;;;0.38;0.38;;;10.50;99.90;;;;;;4970816;28;20042;-73
2022/04/24 08:15:50;;;;;;;0.10;0.10;;;10.60;99.90;;;;;;4955198;28;20030;-73
2022/04/24 08:18:17;;;;;;;0.20;0.20;;;10.60;99.90;;;;;;4971987;28;20027;-73
2022/04/24 08:20:44;;;;;;;0.10;0.10;;;10.60;99.90;;;;;;4970482;28;20565;-71
2022/04/24 08:23:12;;;;;;;0.40;0.40;;;10.60;99.90;;;;;;4971825;28;20455;-71
2022/04/24 08:25:40;;;;;;;0.10;0.10;;;10.60;99.90;;;;;;4970353;28;20524;-70
2022/04/24 08:28:09;;;;;;;0.05;0.05;;;10.40;99.90;;;;;;4971695;28;20117;-71
2022/04/24 08:30:43;;;;;;;0.30;0.30;;;10.30;99.90;;;;;;4970722;28;20126;-71
2022/04/24 08:33:10;;;;;;;0.80;0.65;;;10.30;99.90;;;;;;4970489;28;20027;-72
2022/04/24 08:35:36;;;;;;;0.10;0.10;;;10.40;99.90;;;;;;4971655;28;20453;-72
2022/04/24 08:38:03;;;;;;;0.00;0.00;;;10.40;99.90;;;;;;4954253;28;20077;-72
2022/04/24 08:40:28;;;;;;;0.35;0.35;;;10.50;99.90;;;;;;4971610;28;20555;-71
2022/04/24 08:42:55;;;;;;;0.08;0.08;;;10.50;99.90;;;;;;4938456;28;20128;-72
2022/04/24 08:45:26;;;;;;;0.00;0.00;;;10.70;99.90;;;;;;4954079;28;20399;-73
2022/04/24 08:47:53;;;;;;;0.68;0.68;;;10.80;99.90;;;;;;4938414;28;20050;-73
2022/04/24 08:50:19;;;;;;;1.17;0.40;;;10.60;99.90;;;;;;4954268;28;20499;-72
2022/04/24 08:52:47;;;;;;;0.20;0.20;;;10.50;99.90;;;;;;4954219;28;20118;-74
2022/04/24 08:55:13;;;;;;;0.10;0.10;;;10.60;99.90;;;;;;4954255;28;20126;-72
2022/04/24 08:57:38;;;;;;;0.00;0.00;;;10.50;99.90;;;;;;4954450;28;20627;-72
2022/04/24 09:00:07;;;;;;;0.30;0.30;;;10.60;99.90;;;;;;4971668;28;20117;-72
2022/04/24 09:02:35;;;;;;;0.50;0.50;;;10.70;99.90;;;;;;4974213;28;20049;-73
2022/04/24 09:05:11;;;;;;;0.70;0.70;;;10.70;99.90;;;;;;4974825;28;20034;-72
2022/04/24 09:07:38;;;;;;;0.38;0.38;;;10.80;99.90;;;;;;4962271;28;20030;-72
2022/04/24 09:10:09;;;;;;;1.45;0.77;;;10.80;99.90;;;;;;4982359;28;20033;-72
2022/04/24 09:12:35;;;;;;;0.15;0.15;;;10.60;99.90;;;;;;4964634;28;20073;-72
2022/04/24 09:15:01;;;;;;;0.55;0.55;;;10.50;99.90;;;;;;4976062;28;20035;-71
2022/04/24 09:17:30;;;;;;;0.88;0.88;;;10.70;99.90;;;;;;4964672;28;20110;-73
2022/04/24 09:19:58;;;;;;;0.90;0.90;;;10.60;99.90;;;;;;4953912;28;20023;-73
2022/04/24 09:22:25;;;;;;;3.42;1.48;;;10.40;99.90;;;;;;4971506;28;20039;-74
2022/04/24 09:24:56;;;;;;;6.68;5.90;;;10.50;99.90;;;;;;4954090;28;20031;-70
2022/04/24 09:27:27;;;;;;;1.08;1.08;;;10.70;99.90;;;;;;4970562;28;20043;-74
2022/04/24 09:29:55;;;;;;;;;;;10.80;99.90;;;;;;4971699;28;20058;-72
2022/04/24 09:32:24;;;;;;;2.25;1.45;;;10.80;99.90;;;;;;4973753;28;19938;-73
2022/04/24 09:34:51;;;;;;;0.50;0.50;;;11.00;99.90;;;;;;4969360;28;20182;-71
2022/04/24 09:37:17;;;;;;;0.30;0.30;;;11.20;99.90;;;;;;4971078;28;20073;-71
2022/04/24 09:39:43;;;;;;;0.13;0.13;;;11.20;99.90;;;;;;4953872;28;20474;-71
2022/04/24 09:42:14;;;;;;;0.85;0.80;;;11.30;99.90;;;;;;4970537;28;20402;-71
2022/04/24 09:44:46;;;;;;;0.40;0.40;;;11.20;99.90;;;;;;4970916;28;20035;-71
2022/04/24 09:47:13;;;;;;;0.43;0.43;;;11.30;99.90;;;;;;4971174;28;20107;-71
2022/04/24 09:49:42;;;;;;;0.35;0.35;;;11.40;99.90;;;;;;4972089;28;20049;-71
2022/04/24 09:52:23;;;;;;;0.52;0.52;;;11.40;99.90;;;;;;4974811;28;20435;-72
2022/04/24 09:54:52;;;;;;;0.68;0.68;;;10.80;99.90;;;;;;4941803;28;20035;-71
2022/04/24 09:57:28;;;;;;;14.15;4.32;;;10.90;99.90;;;;;;4974683;28;20034;-71
2022/04/24 09:59:53;;;;;;;3.30;0.90;;;11.00;99.90;;;;;;4974610;28;20035;-72
2022/04/24 10:02:20;;;;;;;0.70;0.43;;;11.00;99.90;;;;;;4974590;28;20063;-72
2022/04/24 10:04:48;;;;;;;0.50;0.50;;;11.10;99.90;;;;;;4974421;28;20026;-73
2022/04/24 10:07:16;;;;;;;0.00;0.00;;;11.20;99.90;;;;;;4974288;28;20030;-73
2022/04/24 10:09:47;;;;;;;0.45;0.45;;;11.30;99.90;;;;;;4974625;28;20090;-72
2022/04/24 10:12:21;;;;;;;0.65;0.65;;;11.40;99.90;;;;;;4973281;28;20034;-70
2022/04/24 10:15:11;;;;;;;0.93;0.93;;;11.60;99.90;;;;;;4969117;28;20114;-71
2022/04/24 10:18:07;;;;;;;0.93;0.88;;;11.60;99.90;;;;;;4974407;28;20062;-71
2022/04/24 10:21:17;;;;;;;0.40;0.40;;;11.40;99.90;;;;;;4973224;28;20042;-72
2022/04/24 10:23:43;;;;;;;0.25;0.25;;;11.40;99.90;;;;;;4974007;28;20526;-73
2022/04/24 10:26:23;;;;;;;0.65;0.65;;;11.40;99.90;;;;;;4974182;28;20063;-72
2022/04/24 10:29:09;;;;;;;0.13;0.13;;;11.10;99.90;;;;;;4974162;28;20027;-72
2022/04/24 10:31:47;;;;;;;0.08;0.08;;;11.20;99.90;;;;;;4973113;28;20106;-72
2022/04/24 10:34:14;;;;;;;0.08;0.08;;;11.20;99.90;;;;;;4956448;28;20109;-72
2022/04/24 10:37:00;;;;;;;0.10;0.10;;;11.20;99.90;;;;;;4973777;28;20037;-73
2022/04/24 10:39:35;;;;;;;0.00;0.00;;;11.40;99.90;;;;;;4974137;28;20053;-72
2022/04/24 10:42:12;;;;;;;0.10;0.10;;;11.50;99.90;;;;;;4957290;28;20037;-72
2022/04/24 10:44:55;;;;;;;0.10;0.10;;;11.40;99.90;;;;;;4956771;28;20030;-73
2022/04/24 10:47:21;;;;;;;0.25;0.25;;;11.30;99.90;;;;;;4957363;28;20495;-73
2022/04/24 10:49:47;;;;;;;0.32;0.32;;;11.50;99.90;;;;;;4973687;28;20113;-73
2022/04/24 10:52:13;;;;;;;0.10;0.10;;;11.30;99.90;;;;;;4974087;28;20031;-72
2022/04/24 10:54:40;;;;;;;0.20;0.20;;;11.40;99.90;;;;;;4956415;28;20022;-72
2022/04/24 10:57:26;;;;;;;0.52;0.52;;;11.50;99.90;;;;;;4973772;28;20038;-72
2022/04/24 10:59:55;;;;;;;0.20;0.20;;;11.70;99.90;;;;;;4973490;28;20038;-72
2022/04/24 11:02:33;;;;;;;0.35;0.35;;;11.50;99.90;;;;;;4956259;28;20030;-71
2022/04/24 11:05:06;;;;;;;0.80;0.80;;;11.40;99.90;;;;;;4972913;28;20621;-72
2022/04/24 11:07:32;;;;;;;1.27;0.63;;;11.60;99.90;;;;;;4956140;28;20035;-72
2022/04/24 11:10:04;;;;;;;0.10;0.10;;;11.50;99.90;;;;;;4973079;28;20042;-72
2022/04/24 11:12:33;;;;;;;1.00;0.98;;;11.50;99.90;;;;;;4956468;28;20077;-73
2022/04/24 11:15:10;;;;;;;0.00;0.00;;;11.40;99.90;;;;;;4956009;28;20022;-72
2022/04/24 11:17:36;;;;;;;1.67;1.33;;;11.40;99.90;;;;;;4972630;28;20041;-72
2022/04/24 11:20:16;;;;;;;0.32;0.32;;;11.20;99.90;;;;;;4972173;28;20039;-72
2022/04/24 11:22:55;;;;;;;0.28;0.28;;;11.10;99.90;;;;;;4955991;28;20069;-71
2022/04/24 11:25:24;;;;;;;0.65;0.65;;;11.10;99.90;;;;;;4960179;28;20483;-71
2022/04/24 11:27:56;;;;;;;0.32;0.32;;;11.10;99.90;;;;;;4979036;28;20030;-70
2022/04/24 11:30:28;;;;;;;2.65;1.40;;;11.10;99.90;;;;;;4979803;28;20043;-69
2022/04/24 11:33:06;;;;;;;1.17;0.88;;;11.20;99.90;;;;;;4971868;28;20371;-70
2022/04/24 11:35:38;;;;;;;0.40;0.40;;;11.10;99.90;;;;;;4953189;29;20031;-70
2022/04/24 11:38:06;;;;;;;0.52;0.52;;;11.10;99.90;;;;;;4952823;28;20599;-70
2022/04/24 11:40:38;;;;;;;0.40;0.40;;;11.10;99.90;;;;;;4953871;29;20038;-71
2022/04/24 11:43:06;;;;;;;0.10;0.10;;;11.30;99.90;;;;;;4953472;29;20681;-70
2022/04/24 11:51:12;;;;;;;0.10;0.10;;;11.40;99.90;;;;;;4952312;28;20183;-70
2022/04/24 11:53:38;;;;;;;0.35;0.35;;;11.50;99.90;;;;;;4952054;28;20613;-70
2022/04/24 11:56:05;;;;;;;0.00;0.00;;;11.50;99.90;;;;;;4951815;29;20027;-70
2022/04/24 11:58:36;;;;;;;1.55;1.45;;;11.50;99.90;;;;;;4953082;29;20035;-70
2022/04/24 12:01:04;;;;;;;0.25;0.25;;;11.60;99.90;;;;;;4952090;28;20542;-72
2022/04/24 12:03:32;;;;;;;1.55;0.85;;;11.70;99.90;;;;;;4955142;28;20441;-74
2022/04/24 12:06:06;;;;;;;5.50;0.63;;;11.80;99.90;;;;;;4971457;28;20493;-70
2022/04/24 12:08:50;;;;;;;0.90;0.85;;;11.80;99.90;;;;;;4972353;28;20170;-70
2022/04/24 12:11:27;;;;;;;2.15;1.40;;;11.80;99.90;;;;;;4971305;28;20022;-70
2022/04/24 12:14:10;;;;;;;0.10;0.10;;;11.80;99.90;;;;;;4969350;28;20440;-71
2022/04/24 12:16:45;;;;;;;0.65;0.65;;;11.70;99.90;;;;;;4970813;28;20526;-71
2022/04/24 12:19:12;;;;;;;0.00;0.00;;;11.60;99.90;;;;;;4971606;28;20053;-71
2022/04/24 12:21:51;;;;;;;1.05;0.73;;;11.80;99.90;;;;;;4971187;28;20390;-71
2022/04/24 12:24:18;;;;;;;0.65;0.65;;;11.90;99.90;;;;;;4954737;28;20035;-71
2022/04/24 12:26:52;;;;;;;0.17;0.17;;;12.10;99.90;;;;;;4970717;28;20089;-73
2022/04/24 12:29:18;;;;;;;3.92;1.48;;;12.00;99.90;;;;;;4985637;28;20042;-71
2022/04/24 12:31:48;;;;;;;0.40;0.40;;;12.20;99.90;;;;;;4973982;28;20026;-70
2022/04/24 12:34:15;;;;;;;0.20;0.20;;;12.20;99.90;;;;;;4964217;28;20041;-70
2022/04/24 12:36:54;;;;;;;0.40;0.40;;;12.30;99.90;;;;;;4971867;28;20030;-70
2022/04/24 12:39:25;;;;;;;0.08;0.08;;;12.40;99.90;;;;;;4971551;28;20085;-70
2022/04/24 12:41:52;;;;;;;1.35;1.10;;;12.50;99.90;;;;;;4954465;28;20050;-70
2022/04/24 12:44:18;;;;;;;1.05;0.85;;;12.50;99.90;;;;;;4971024;28;20070;-70
2022/04/24 12:46:46;;;;;;;0.77;0.77;;;12.60;99.90;;;;;;4954427;28;20073;-70
2022/04/24 12:49:13;;;;;;;0.38;0.38;;;12.30;99.90;;;;;;4954605;28;20030;-70
2022/04/24 12:51:39;;;;;;;1.95;1.63;;;12.40;99.90;;;;;;4938966;28;20085;-70
2022/04/24 12:54:05;;;;;;;0.52;0.52;;;12.40;99.90;;;;;;4954282;28;20432;-69
2022/04/24 12:56:32;;;;;;;0.80;0.57;;;12.50;99.90;;;;;;4971487;28;20042;-68
2022/04/24 12:58:58;;;;;;;1.02;0.93;;;12.30;99.90;;;;;;4957706;28;20038;-68